sensor_id;sensor_type;location;lat;lon;timestamp;P1;durP1;ratioP1;P2;durP2;ratioP2
19923;SDS011;10124;53.068;18.224;2022-12-20T00:01:33;115.43;;;49.73;;
19923;SDS011;10124;53.068;18.224;2022-12-20T00:04:02;116.57;;;48.83;;
19923;SDS011;10124;53.068;18.224;2022-12-20T00:06:34;109.10;;;48.67;;
19923;SDS011;10124;53.068;18.224;2022-12-20T00:09:05;115.40;;;52.77;;
19923;SDS011;10124;53.068;18.224;2022-12-20T00:11:34;111.27;;;48.57;;
19923;SDS011;10124;53.068;18.224;2022-12-20T00:14:04;113.47;;;49.03;;
19923;SDS011;10124;53.068;18.224;2022-12-20T00:16:31;99.67;;;48.13;;
19923;SDS011;10124;53.068;18.224;2022-12-20T00:19:00;119.13;;;48.80;;
19923;SDS011;10124;53.068;18.224;2022-12-20T00:21:30;113.03;;;49.73;;
19923;SDS011;10124;53.068;18.224;2022-12-20T00:23:59;126.53;;;53.60;;
19923;SDS011;10124;53.068;18.224;2022-12-20T00:26:28;121.13;;;51.93;;
19923;SDS011;10124;53.068;18.224;2022-12-20T00:28:58;124.93;;;52.53;;
19923;SDS011;10124;53.068;18.224;2022-12-20T00:31:27;115.13;;;50.83;;
19923;SDS011;10124;53.068;18.224;2022-12-20T00:33:56;119.23;;;51.97;;
19923;SDS011;10124;53.068;18.224;2022-12-20T00:36:26;124.80;;;48.60;;
19923;SDS011;10124;53.068;18.224;2022-12-20T00:38:56;131.83;;;54.73;;
19923;SDS011;10124;53.068;18.224;2022-12-20T00:41:27;111.27;;;49.87;;
19923;SDS011;10124;53.068;18.224;2022-12-20T00:43:56;114.10;;;49.83;;
19923;SDS011;10124;53.068;18.224;2022-12-20T00:46:24;125.43;;;54.03;;
19923;SDS011;10124;53.068;18.224;2022-12-20T00:48:53;129.77;;;51.93;;
19923;SDS011;10124;53.068;18.224;2022-12-20T00:51:22;117.17;;;49.43;;
19923;SDS011;10124;53.068;18.224;2022-12-20T00:53:51;114.07;;;49.77;;
19923;SDS011;10124;53.068;18.224;2022-12-20T00:56:19;119.07;;;53.70;;
19923;SDS011;10124;53.068;18.224;2022-12-20T00:58:47;116.90;;;50.73;;
19923;SDS011;10124;53.068;18.224;2022-12-20T01:01:22;123.83;;;52.03;;
19923;SDS011;10124;53.068;18.224;2022-12-20T01:03:52;123.20;;;51.67;;
19923;SDS011;10124;53.068;18.224;2022-12-20T01:06:20;124.27;;;53.30;;
19923;SDS011;10124;53.068;18.224;2022-12-20T01:08:50;115.37;;;51.47;;
19923;SDS011;10124;53.068;18.224;2022-12-20T01:11:26;116.77;;;51.10;;
19923;SDS011;10124;53.068;18.224;2022-12-20T01:14:01;116.23;;;49.03;;
19923;SDS011;10124;53.068;18.224;2022-12-20T01:16:34;131.73;;;51.73;;
19923;SDS011;10124;53.068;18.224;2022-12-20T01:19:07;129.10;;;52.20;;
19923;SDS011;10124;53.068;18.224;2022-12-20T01:21:36;128.03;;;52.57;;
19923;SDS011;10124;53.068;18.224;2022-12-20T01:24:13;115.47;;;49.53;;
19923;SDS011;10124;53.068;18.224;2022-12-20T01:26:42;128.17;;;51.37;;
19923;SDS011;10124;53.068;18.224;2022-12-20T01:29:12;152.47;;;57.63;;
19923;SDS011;10124;53.068;18.224;2022-12-20T01:31:41;123.33;;;51.80;;
19923;SDS011;10124;53.068;18.224;2022-12-20T01:34:09;126.57;;;52.63;;
19923;SDS011;10124;53.068;18.224;2022-12-20T01:36:38;112.17;;;48.93;;
19923;SDS011;10124;53.068;18.224;2022-12-20T01:39:07;141.40;;;55.43;;
19923;SDS011;10124;53.068;18.224;2022-12-20T01:41:39;122.53;;;50.10;;
19923;SDS011;10124;53.068;18.224;2022-12-20T01:46:44;140.00;;;54.83;;
19923;SDS011;10124;53.068;18.224;2022-12-20T01:49:23;114.10;;;48.30;;
19923;SDS011;10124;53.068;18.224;2022-12-20T01:51:52;137.40;;;52.63;;
19923;SDS011;10124;53.068;18.224;2022-12-20T01:54:33;121.40;;;50.70;;
19923;SDS011;10124;53.068;18.224;2022-12-20T01:57:08;116.97;;;48.53;;
19923;SDS011;10124;53.068;18.224;2022-12-20T01:59:42;123.13;;;50.93;;
19923;SDS011;10124;53.068;18.224;2022-12-20T02:02:12;119.13;;;50.20;;
19923;SDS011;10124;53.068;18.224;2022-12-20T02:04:40;106.77;;;47.77;;
19923;SDS011;10124;53.068;18.224;2022-12-20T02:07:08;117.30;;;48.90;;
19923;SDS011;10124;53.068;18.224;2022-12-20T02:09:39;110.83;;;47.23;;
19923;SDS011;10124;53.068;18.224;2022-12-20T02:12:10;115.07;;;48.13;;
19923;SDS011;10124;53.068;18.224;2022-12-20T02:17:43;106.90;;;45.07;;
19923;SDS011;10124;53.068;18.224;2022-12-20T02:32:27;110.10;;;45.73;;
19923;SDS011;10124;53.068;18.224;2022-12-20T02:35:03;111.70;;;44.73;;
19923;SDS011;10124;53.068;18.224;2022-12-20T02:37:33;111.27;;;45.90;;
19923;SDS011;10124;53.068;18.224;2022-12-20T02:40:02;98.07;;;43.07;;
19923;SDS011;10124;53.068;18.224;2022-12-20T02:42:31;110.50;;;47.47;;
19923;SDS011;10124;53.068;18.224;2022-12-20T02:45:05;113.90;;;45.90;;
19923;SDS011;10124;53.068;18.224;2022-12-20T02:47:44;103.23;;;43.03;;
19923;SDS011;10124;53.068;18.224;2022-12-20T02:52:58;102.13;;;43.67;;
19923;SDS011;10124;53.068;18.224;2022-12-20T02:55:32;96.90;;;42.37;;
19923;SDS011;10124;53.068;18.224;2022-12-20T02:58:46;98.43;;;40.40;;
19923;SDS011;10124;53.068;18.224;2022-12-20T03:01:23;106.90;;;44.13;;
19923;SDS011;10124;53.068;18.224;2022-12-20T03:03:55;102.93;;;42.93;;
19923;SDS011;10124;53.068;18.224;2022-12-20T03:06:24;102.80;;;44.17;;
19923;SDS011;10124;53.068;18.224;2022-12-20T03:08:52;103.13;;;42.57;;
19923;SDS011;10124;53.068;18.224;2022-12-20T03:11:23;94.70;;;40.10;;
19923;SDS011;10124;53.068;18.224;2022-12-20T03:13:51;91.57;;;40.40;;
19923;SDS011;10124;53.068;18.224;2022-12-20T03:16:19;90.97;;;41.60;;
19923;SDS011;10124;53.068;18.224;2022-12-20T03:18:48;96.57;;;42.97;;
19923;SDS011;10124;53.068;18.224;2022-12-20T03:21:15;94.33;;;39.20;;
19923;SDS011;10124;53.068;18.224;2022-12-20T03:23:42;92.97;;;40.20;;
19923;SDS011;10124;53.068;18.224;2022-12-20T03:26:10;95.07;;;42.60;;
19923;SDS011;10124;53.068;18.224;2022-12-20T03:28:44;88.17;;;39.77;;
19923;SDS011;10124;53.068;18.224;2022-12-20T03:31:16;89.27;;;41.90;;
19923;SDS011;10124;53.068;18.224;2022-12-20T03:33:50;77.63;;;37.87;;
19923;SDS011;10124;53.068;18.224;2022-12-20T03:36:17;97.17;;;41.90;;
19923;SDS011;10124;53.068;18.224;2022-12-20T03:38:54;94.37;;;39.60;;
19923;SDS011;10124;53.068;18.224;2022-12-20T03:41:24;96.73;;;41.60;;
19923;SDS011;10124;53.068;18.224;2022-12-20T03:43:52;84.17;;;39.63;;
19923;SDS011;10124;53.068;18.224;2022-12-20T03:46:21;84.23;;;38.33;;
19923;SDS011;10124;53.068;18.224;2022-12-20T03:48:49;85.77;;;39.83;;
19923;SDS011;10124;53.068;18.224;2022-12-20T03:51:17;87.93;;;38.63;;
19923;SDS011;10124;53.068;18.224;2022-12-20T03:53:45;75.83;;;36.63;;
19923;SDS011;10124;53.068;18.224;2022-12-20T03:56:13;83.17;;;37.67;;
19923;SDS011;10124;53.068;18.224;2022-12-20T03:58:42;82.07;;;36.87;;
19923;SDS011;10124;53.068;18.224;2022-12-20T04:01:30;87.07;;;37.10;;
19923;SDS011;10124;53.068;18.224;2022-12-20T04:04:03;77.00;;;37.63;;
19923;SDS011;10124;53.068;18.224;2022-12-20T04:06:31;90.13;;;40.33;;
19923;SDS011;10124;53.068;18.224;2022-12-20T04:08:59;85.77;;;38.93;;
19923;SDS011;10124;53.068;18.224;2022-12-20T04:11:32;85.87;;;39.70;;
19923;SDS011;10124;53.068;18.224;2022-12-20T04:14:12;81.27;;;36.90;;
19923;SDS011;10124;53.068;18.224;2022-12-20T04:16:40;81.80;;;37.17;;
19923;SDS011;10124;53.068;18.224;2022-12-20T04:19:09;88.47;;;38.47;;
19923;SDS011;10124;53.068;18.224;2022-12-20T04:21:44;75.97;;;36.37;;
19923;SDS011;10124;53.068;18.224;2022-12-20T04:24:13;79.43;;;35.67;;
19923;SDS011;10124;53.068;18.224;2022-12-20T04:27:05;72.00;;;36.50;;
19923;SDS011;10124;53.068;18.224;2022-12-20T04:29:33;80.27;;;36.40;;
19923;SDS011;10124;53.068;18.224;2022-12-20T04:32:01;87.27;;;37.53;;
19923;SDS011;10124;53.068;18.224;2022-12-20T04:34:29;78.20;;;36.37;;
19923;SDS011;10124;53.068;18.224;2022-12-20T04:36:57;76.77;;;37.73;;
19923;SDS011;10124;53.068;18.224;2022-12-20T04:39:36;72.90;;;36.43;;
19923;SDS011;10124;53.068;18.224;2022-12-20T04:42:25;70.47;;;33.97;;
19923;SDS011;10124;53.068;18.224;2022-12-20T04:44:54;70.37;;;34.43;;
19923;SDS011;10124;53.068;18.224;2022-12-20T04:47:25;75.33;;;35.63;;
19923;SDS011;10124;53.068;18.224;2022-12-20T04:49:54;70.17;;;34.73;;
19923;SDS011;10124;53.068;18.224;2022-12-20T04:52:21;69.73;;;33.33;;
19923;SDS011;10124;53.068;18.224;2022-12-20T04:55:14;63.93;;;31.60;;
19923;SDS011;10124;53.068;18.224;2022-12-20T04:57:42;66.63;;;32.53;;
19923;SDS011;10124;53.068;18.224;2022-12-20T05:00:10;62.10;;;32.00;;
19923;SDS011;10124;53.068;18.224;2022-12-20T05:02:43;64.67;;;31.40;;
19923;SDS011;10124;53.068;18.224;2022-12-20T05:05:15;64.50;;;31.07;;
19923;SDS011;10124;53.068;18.224;2022-12-20T05:07:48;60.93;;;32.47;;
19923;SDS011;10124;53.068;18.224;2022-12-20T05:10:17;66.10;;;31.87;;
19923;SDS011;10124;53.068;18.224;2022-12-20T05:12:46;68.27;;;32.50;;
19923;SDS011;10124;53.068;18.224;2022-12-20T05:15:22;63.93;;;30.53;;
19923;SDS011;10124;53.068;18.224;2022-12-20T05:17:50;63.30;;;31.67;;
19923;SDS011;10124;53.068;18.224;2022-12-20T05:20:18;61.40;;;29.40;;
19923;SDS011;10124;53.068;18.224;2022-12-20T05:22:47;54.70;;;28.13;;
19923;SDS011;10124;53.068;18.224;2022-12-20T05:25:34;52.73;;;29.10;;
19923;SDS011;10124;53.068;18.224;2022-12-20T05:28:20;63.93;;;31.50;;
19923;SDS011;10124;53.068;18.224;2022-12-20T05:30:48;56.67;;;29.77;;
19923;SDS011;10124;53.068;18.224;2022-12-20T05:33:15;53.87;;;27.70;;
19923;SDS011;10124;53.068;18.224;2022-12-20T05:35:43;52.90;;;28.37;;
19923;SDS011;10124;53.068;18.224;2022-12-20T05:38:12;52.23;;;27.10;;
19923;SDS011;10124;53.068;18.224;2022-12-20T05:40:41;51.20;;;29.33;;
19923;SDS011;10124;53.068;18.224;2022-12-20T05:43:10;53.37;;;28.20;;
19923;SDS011;10124;53.068;18.224;2022-12-20T05:45:44;61.50;;;29.43;;
19923;SDS011;10124;53.068;18.224;2022-12-20T05:48:20;54.43;;;28.40;;
19923;SDS011;10124;53.068;18.224;2022-12-20T05:50:48;49.43;;;28.03;;
19923;SDS011;10124;53.068;18.224;2022-12-20T05:53:23;55.03;;;29.37;;
19923;SDS011;10124;53.068;18.224;2022-12-20T05:55:55;46.20;;;27.07;;
19923;SDS011;10124;53.068;18.224;2022-12-20T05:58:28;49.47;;;25.77;;
19923;SDS011;10124;53.068;18.224;2022-12-20T06:00:59;43.43;;;24.60;;
19923;SDS011;10124;53.068;18.224;2022-12-20T06:03:31;46.80;;;25.60;;
19923;SDS011;10124;53.068;18.224;2022-12-20T06:06:01;50.63;;;25.27;;
19923;SDS011;10124;53.068;18.224;2022-12-20T06:08:35;49.23;;;26.63;;
19923;SDS011;10124;53.068;18.224;2022-12-20T06:11:07;52.80;;;27.60;;
19923;SDS011;10124;53.068;18.224;2022-12-20T06:13:45;52.43;;;26.40;;
19923;SDS011;10124;53.068;18.224;2022-12-20T06:16:13;51.83;;;26.30;;
19923;SDS011;10124;53.068;18.224;2022-12-20T06:18:40;49.70;;;25.90;;
19923;SDS011;10124;53.068;18.224;2022-12-20T06:21:11;53.30;;;26.63;;
19923;SDS011;10124;53.068;18.224;2022-12-20T06:23:38;55.40;;;28.10;;
19923;SDS011;10124;53.068;18.224;2022-12-20T06:26:11;50.03;;;25.00;;
19923;SDS011;10124;53.068;18.224;2022-12-20T06:28:46;48.27;;;24.93;;
19923;SDS011;10124;53.068;18.224;2022-12-20T06:31:33;50.23;;;26.60;;
19923;SDS011;10124;53.068;18.224;2022-12-20T06:34:01;50.63;;;26.03;;
19923;SDS011;10124;53.068;18.224;2022-12-20T06:36:33;47.73;;;26.53;;
19923;SDS011;10124;53.068;18.224;2022-12-20T06:39:00;50.13;;;27.40;;
19923;SDS011;10124;53.068;18.224;2022-12-20T06:41:39;46.67;;;24.93;;
19923;SDS011;10124;53.068;18.224;2022-12-20T06:44:06;51.30;;;26.37;;
19923;SDS011;10124;53.068;18.224;2022-12-20T06:46:34;44.60;;;25.37;;
19923;SDS011;10124;53.068;18.224;2022-12-20T06:49:02;47.10;;;25.87;;
19923;SDS011;10124;53.068;18.224;2022-12-20T06:51:31;55.77;;;27.10;;
19923;SDS011;10124;53.068;18.224;2022-12-20T06:53:59;52.33;;;25.53;;
19923;SDS011;10124;53.068;18.224;2022-12-20T06:56:29;47.00;;;25.53;;
19923;SDS011;10124;53.068;18.224;2022-12-20T06:59:07;54.60;;;27.57;;
19923;SDS011;10124;53.068;18.224;2022-12-20T07:01:35;48.13;;;25.60;;
19923;SDS011;10124;53.068;18.224;2022-12-20T07:04:03;44.37;;;23.50;;
19923;SDS011;10124;53.068;18.224;2022-12-20T07:06:30;49.13;;;25.03;;
19923;SDS011;10124;53.068;18.224;2022-12-20T07:08:58;47.70;;;25.30;;
19923;SDS011;10124;53.068;18.224;2022-12-20T07:11:26;49.43;;;26.67;;
19923;SDS011;10124;53.068;18.224;2022-12-20T07:13:54;48.87;;;24.67;;
19923;SDS011;10124;53.068;18.224;2022-12-20T07:16:23;48.00;;;23.07;;
19923;SDS011;10124;53.068;18.224;2022-12-20T07:18:51;44.33;;;23.53;;
19923;SDS011;10124;53.068;18.224;2022-12-20T07:21:20;44.27;;;23.57;;
19923;SDS011;10124;53.068;18.224;2022-12-20T07:23:47;40.57;;;23.00;;
19923;SDS011;10124;53.068;18.224;2022-12-20T07:26:15;40.10;;;23.00;;
19923;SDS011;10124;53.068;18.224;2022-12-20T07:28:42;47.53;;;23.23;;
19923;SDS011;10124;53.068;18.224;2022-12-20T07:31:10;47.37;;;23.47;;
19923;SDS011;10124;53.068;18.224;2022-12-20T07:33:38;44.50;;;24.87;;
19923;SDS011;10124;53.068;18.224;2022-12-20T07:36:07;48.80;;;26.17;;
19923;SDS011;10124;53.068;18.224;2022-12-20T07:38:37;44.37;;;25.27;;
19923;SDS011;10124;53.068;18.224;2022-12-20T07:41:12;43.97;;;23.23;;
19923;SDS011;10124;53.068;18.224;2022-12-20T07:43:41;44.83;;;24.17;;
19923;SDS011;10124;53.068;18.224;2022-12-20T07:46:09;46.47;;;23.27;;
19923;SDS011;10124;53.068;18.224;2022-12-20T07:48:40;44.07;;;22.57;;
19923;SDS011;10124;53.068;18.224;2022-12-20T07:51:09;43.10;;;23.30;;
19923;SDS011;10124;53.068;18.224;2022-12-20T07:53:47;48.30;;;24.73;;
19923;SDS011;10124;53.068;18.224;2022-12-20T07:56:19;47.80;;;24.17;;
19923;SDS011;10124;53.068;18.224;2022-12-20T07:58:48;47.77;;;23.57;;
19923;SDS011;10124;53.068;18.224;2022-12-20T08:01:20;44.77;;;23.10;;
19923;SDS011;10124;53.068;18.224;2022-12-20T08:03:48;46.20;;;25.00;;
19923;SDS011;10124;53.068;18.224;2022-12-20T08:06:19;40.87;;;23.47;;
19923;SDS011;10124;53.068;18.224;2022-12-20T08:08:48;43.97;;;22.77;;
19923;SDS011;10124;53.068;18.224;2022-12-20T08:11:20;43.73;;;22.73;;
19923;SDS011;10124;53.068;18.224;2022-12-20T08:13:49;46.20;;;24.33;;
19923;SDS011;10124;53.068;18.224;2022-12-20T08:16:24;44.17;;;22.80;;
19923;SDS011;10124;53.068;18.224;2022-12-20T08:18:52;42.53;;;23.07;;
19923;SDS011;10124;53.068;18.224;2022-12-20T08:21:20;41.70;;;22.33;;
19923;SDS011;10124;53.068;18.224;2022-12-20T08:23:47;41.20;;;21.37;;
19923;SDS011;10124;53.068;18.224;2022-12-20T08:26:16;45.97;;;21.80;;
19923;SDS011;10124;53.068;18.224;2022-12-20T08:28:44;46.23;;;22.57;;
19923;SDS011;10124;53.068;18.224;2022-12-20T08:31:13;45.63;;;24.43;;
19923;SDS011;10124;53.068;18.224;2022-12-20T08:33:41;43.60;;;23.07;;
19923;SDS011;10124;53.068;18.224;2022-12-20T08:36:10;46.17;;;24.27;;
19923;SDS011;10124;53.068;18.224;2022-12-20T08:38:39;44.33;;;23.60;;
19923;SDS011;10124;53.068;18.224;2022-12-20T08:41:09;44.43;;;23.80;;
19923;SDS011;10124;53.068;18.224;2022-12-20T08:43:39;40.67;;;22.57;;
19923;SDS011;10124;53.068;18.224;2022-12-20T08:46:08;42.97;;;21.07;;
19923;SDS011;10124;53.068;18.224;2022-12-20T08:48:39;44.83;;;23.30;;
19923;SDS011;10124;53.068;18.224;2022-12-20T08:51:08;45.60;;;23.03;;
19923;SDS011;10124;53.068;18.224;2022-12-20T08:53:38;43.17;;;23.87;;
19923;SDS011;10124;53.068;18.224;2022-12-20T08:56:13;43.70;;;22.27;;
19923;SDS011;10124;53.068;18.224;2022-12-20T08:58:43;48.93;;;24.03;;
19923;SDS011;10124;53.068;18.224;2022-12-20T09:01:12;46.47;;;22.83;;
19923;SDS011;10124;53.068;18.224;2022-12-20T09:03:43;41.90;;;22.70;;
19923;SDS011;10124;53.068;18.224;2022-12-20T09:06:16;45.27;;;22.30;;
19923;SDS011;10124;53.068;18.224;2022-12-20T09:08:47;43.43;;;22.30;;
19923;SDS011;10124;53.068;18.224;2022-12-20T09:11:16;42.40;;;21.67;;
19923;SDS011;10124;53.068;18.224;2022-12-20T09:13:47;43.57;;;22.47;;
19923;SDS011;10124;53.068;18.224;2022-12-20T09:16:18;40.07;;;21.00;;
19923;SDS011;10124;53.068;18.224;2022-12-20T09:18:48;43.37;;;21.33;;
19923;SDS011;10124;53.068;18.224;2022-12-20T09:21:30;42.57;;;19.70;;
19923;SDS011;10124;53.068;18.224;2022-12-20T09:23:58;40.40;;;21.00;;
19923;SDS011;10124;53.068;18.224;2022-12-20T09:26:26;40.30;;;21.70;;
19923;SDS011;10124;53.068;18.224;2022-12-20T09:28:54;39.93;;;20.80;;
19923;SDS011;10124;53.068;18.224;2022-12-20T09:31:22;41.87;;;21.53;;
19923;SDS011;10124;53.068;18.224;2022-12-20T09:33:52;38.10;;;19.60;;
19923;SDS011;10124;53.068;18.224;2022-12-20T09:36:22;37.87;;;20.13;;
19923;SDS011;10124;53.068;18.224;2022-12-20T09:38:52;39.30;;;20.37;;
19923;SDS011;10124;53.068;18.224;2022-12-20T09:41:26;37.50;;;20.57;;
19923;SDS011;10124;53.068;18.224;2022-12-20T09:43:56;44.77;;;21.90;;
19923;SDS011;10124;53.068;18.224;2022-12-20T09:46:26;40.67;;;21.80;;
19923;SDS011;10124;53.068;18.224;2022-12-20T09:48:55;45.30;;;21.03;;
19923;SDS011;10124;53.068;18.224;2022-12-20T09:57:12;42.87;;;22.33;;
19923;SDS011;10124;53.068;18.224;2022-12-20T09:59:41;35.87;;;19.47;;
19923;SDS011;10124;53.068;18.224;2022-12-20T10:02:18;37.37;;;20.07;;
19923;SDS011;10124;53.068;18.224;2022-12-20T10:05:12;40.70;;;21.73;;
19923;SDS011;10124;53.068;18.224;2022-12-20T10:07:51;40.07;;;21.73;;
19923;SDS011;10124;53.068;18.224;2022-12-20T10:22:22;44.13;;;23.30;;
19923;SDS011;10124;53.068;18.224;2022-12-20T10:24:44;41.20;;;23.07;;
19923;SDS011;10124;53.068;18.224;2022-12-20T10:27:27;37.50;;;20.50;;
19923;SDS011;10124;53.068;18.224;2022-12-20T10:29:55;41.83;;;21.03;;
19923;SDS011;10124;53.068;18.224;2022-12-20T10:32:23;44.70;;;19.97;;
19923;SDS011;10124;53.068;18.224;2022-12-20T10:37:58;39.87;;;21.03;;
19923;SDS011;10124;53.068;18.224;2022-12-20T10:40:36;39.43;;;20.73;;
19923;SDS011;10124;53.068;18.224;2022-12-20T10:43:26;38.33;;;20.57;;
19923;SDS011;10124;53.068;18.224;2022-12-20T10:46:03;38.27;;;20.50;;
19923;SDS011;10124;53.068;18.224;2022-12-20T10:53:49;40.13;;;20.80;;
19923;SDS011;10124;53.068;18.224;2022-12-20T10:59:22;42.43;;;21.70;;
19923;SDS011;10124;53.068;18.224;2022-12-20T11:01:53;46.87;;;22.50;;
19923;SDS011;10124;53.068;18.224;2022-12-20T11:06:49;42.00;;;21.47;;
19923;SDS011;10124;53.068;18.224;2022-12-20T11:14:40;41.73;;;21.50;;
19923;SDS011;10124;53.068;18.224;2022-12-20T11:22:23;48.93;;;22.83;;
19923;SDS011;10124;53.068;18.224;2022-12-20T11:30:50;51.17;;;24.30;;
19923;SDS011;10124;53.068;18.224;2022-12-20T11:39:25;54.37;;;23.70;;
19923;SDS011;10124;53.068;18.224;2022-12-20T11:47:47;45.67;;;23.83;;
19923;SDS011;10124;53.068;18.224;2022-12-20T11:56:11;48.83;;;23.57;;
19923;SDS011;10124;53.068;18.224;2022-12-20T11:58:49;47.87;;;24.03;;
19923;SDS011;10124;53.068;18.224;2022-12-20T12:01:23;49.70;;;25.00;;
19923;SDS011;10124;53.068;18.224;2022-12-20T12:04:04;50.40;;;23.40;;
19923;SDS011;10124;53.068;18.224;2022-12-20T12:06:41;52.80;;;24.13;;
19923;SDS011;10124;53.068;18.224;2022-12-20T12:12:23;48.00;;;23.60;;
19923;SDS011;10124;53.068;18.224;2022-12-20T12:15:04;50.20;;;24.67;;
19923;SDS011;10124;53.068;18.224;2022-12-20T12:20:47;50.77;;;24.77;;
19923;SDS011;10124;53.068;18.224;2022-12-20T12:28:59;53.60;;;24.90;;
19923;SDS011;10124;53.068;18.224;2022-12-20T12:45:57;55.70;;;27.07;;
19923;SDS011;10124;53.068;18.224;2022-12-20T12:48:13;50.10;;;26.30;;
19923;SDS011;10124;53.068;18.224;2022-12-20T12:50:47;57.90;;;27.30;;
19923;SDS011;10124;53.068;18.224;2022-12-20T12:53:21;53.40;;;26.80;;
19923;SDS011;10124;53.068;18.224;2022-12-20T12:55:56;49.27;;;26.07;;
19923;SDS011;10124;53.068;18.224;2022-12-20T12:58:43;51.30;;;25.80;;
19923;SDS011;10124;53.068;18.224;2022-12-20T13:01:46;55.97;;;26.80;;
19923;SDS011;10124;53.068;18.224;2022-12-20T13:04:26;49.57;;;26.00;;
19923;SDS011;10124;53.068;18.224;2022-12-20T13:06:59;54.60;;;27.97;;
19923;SDS011;10124;53.068;18.224;2022-12-20T13:11:57;57.17;;;31.73;;
19923;SDS011;10124;53.068;18.224;2022-12-20T13:19:52;54.07;;;27.10;;
19923;SDS011;10124;53.068;18.224;2022-12-20T13:22:22;60.37;;;29.40;;
19923;SDS011;10124;53.068;18.224;2022-12-20T13:24:52;56.50;;;28.40;;
19923;SDS011;10124;53.068;18.224;2022-12-20T13:40:48;57.23;;;29.73;;
19923;SDS011;10124;53.068;18.224;2022-12-20T13:43:31;57.77;;;28.73;;
19923;SDS011;10124;53.068;18.224;2022-12-20T13:46:13;53.73;;;28.10;;
19923;SDS011;10124;53.068;18.224;2022-12-20T13:49:00;64.77;;;31.57;;
19923;SDS011;10124;53.068;18.224;2022-12-20T13:51:35;53.30;;;28.77;;
19923;SDS011;10124;53.068;18.224;2022-12-20T13:54:03;55.53;;;29.27;;
19923;SDS011;10124;53.068;18.224;2022-12-20T13:56:49;56.33;;;28.50;;
19923;SDS011;10124;53.068;18.224;2022-12-20T13:59:23;55.70;;;27.50;;
19923;SDS011;10124;53.068;18.224;2022-12-20T14:02:02;66.53;;;32.50;;
19923;SDS011;10124;53.068;18.224;2022-12-20T14:04:41;57.03;;;28.97;;
19923;SDS011;10124;53.068;18.224;2022-12-20T14:07:15;62.93;;;32.17;;
19923;SDS011;10124;53.068;18.224;2022-12-20T14:09:46;60.17;;;32.13;;
19923;SDS011;10124;53.068;18.224;2022-12-20T14:12:24;57.23;;;28.67;;
19923;SDS011;10124;53.068;18.224;2022-12-20T14:15:13;62.40;;;31.33;;
19923;SDS011;10124;53.068;18.224;2022-12-20T14:17:48;60.43;;;28.90;;
19923;SDS011;10124;53.068;18.224;2022-12-20T14:20:16;55.20;;;30.40;;
19923;SDS011;10124;53.068;18.224;2022-12-20T14:25:27;57.13;;;30.30;;
19923;SDS011;10124;53.068;18.224;2022-12-20T14:28:18;61.30;;;31.53;;
19923;SDS011;10124;53.068;18.224;2022-12-20T14:31:03;58.63;;;31.00;;
19923;SDS011;10124;53.068;18.224;2022-12-20T14:33:36;57.57;;;29.60;;
19923;SDS011;10124;53.068;18.224;2022-12-20T14:36:27;61.87;;;30.43;;
19923;SDS011;10124;53.068;18.224;2022-12-20T14:38:57;63.63;;;29.93;;
19923;SDS011;10124;53.068;18.224;2022-12-20T14:41:29;57.50;;;29.77;;
19923;SDS011;10124;53.068;18.224;2022-12-20T14:44:00;64.47;;;31.03;;
19923;SDS011;10124;53.068;18.224;2022-12-20T14:46:50;65.27;;;30.53;;
19923;SDS011;10124;53.068;18.224;2022-12-20T14:51:52;63.67;;;31.90;;
19923;SDS011;10124;53.068;18.224;2022-12-20T14:54:32;67.93;;;31.33;;
19923;SDS011;10124;53.068;18.224;2022-12-20T14:57:23;65.70;;;32.33;;
19923;SDS011;10124;53.068;18.224;2022-12-20T15:00:53;69.67;;;32.77;;
19923;SDS011;10124;53.068;18.224;2022-12-20T15:10:59;66.33;;;31.20;;
19923;SDS011;10124;53.068;18.224;2022-12-20T15:13:31;64.93;;;32.07;;
19923;SDS011;10124;53.068;18.224;2022-12-20T15:16:21;62.23;;;31.07;;
19923;SDS011;10124;53.068;18.224;2022-12-20T15:18:50;67.27;;;33.80;;
19923;SDS011;10124;53.068;18.224;2022-12-20T15:24:02;68.70;;;34.80;;
19923;SDS011;10124;53.068;18.224;2022-12-20T15:26:35;70.40;;;33.70;;
19923;SDS011;10124;53.068;18.224;2022-12-20T15:29:04;63.17;;;31.47;;
19923;SDS011;10124;53.068;18.224;2022-12-20T15:31:32;62.63;;;31.67;;
19923;SDS011;10124;53.068;18.224;2022-12-20T15:34:03;66.13;;;31.10;;
19923;SDS011;10124;53.068;18.224;2022-12-20T15:36:40;67.63;;;34.07;;
19923;SDS011;10124;53.068;18.224;2022-12-20T15:39:09;63.93;;;30.53;;
19923;SDS011;10124;53.068;18.224;2022-12-20T15:41:41;61.53;;;32.07;;
19923;SDS011;10124;53.068;18.224;2022-12-20T15:44:24;61.03;;;29.47;;
19923;SDS011;10124;53.068;18.224;2022-12-20T15:46:54;72.57;;;35.87;;
19923;SDS011;10124;53.068;18.224;2022-12-20T15:49:24;68.20;;;32.33;;
19923;SDS011;10124;53.068;18.224;2022-12-20T15:51:55;62.97;;;30.77;;
19923;SDS011;10124;53.068;18.224;2022-12-20T15:56:59;65.43;;;32.33;;
19923;SDS011;10124;53.068;18.224;2022-12-20T15:59:29;67.37;;;33.50;;
19923;SDS011;10124;53.068;18.224;2022-12-20T16:02:20;65.27;;;31.43;;
19923;SDS011;10124;53.068;18.224;2022-12-20T16:04:50;70.37;;;33.53;;
19923;SDS011;10124;53.068;18.224;2022-12-20T16:07:20;71.00;;;35.60;;
19923;SDS011;10124;53.068;18.224;2022-12-20T16:09:50;70.67;;;33.13;;
19923;SDS011;10124;53.068;18.224;2022-12-20T16:12:20;62.33;;;32.23;;
19923;SDS011;10124;53.068;18.224;2022-12-20T16:14:53;67.47;;;33.70;;
19923;SDS011;10124;53.068;18.224;2022-12-20T16:17:23;71.83;;;34.20;;
19923;SDS011;10124;53.068;18.224;2022-12-20T16:19:51;72.57;;;32.90;;
19923;SDS011;10124;53.068;18.224;2022-12-20T16:22:20;65.73;;;32.87;;
19923;SDS011;10124;53.068;18.224;2022-12-20T16:24:52;84.33;;;40.73;;
19923;SDS011;10124;53.068;18.224;2022-12-20T16:27:21;66.83;;;33.23;;
19923;SDS011;10124;53.068;18.224;2022-12-20T16:29:49;68.97;;;33.47;;
19923;SDS011;10124;53.068;18.224;2022-12-20T16:32:18;69.57;;;32.87;;
19923;SDS011;10124;53.068;18.224;2022-12-20T16:34:51;78.33;;;33.90;;
19923;SDS011;10124;53.068;18.224;2022-12-20T16:37:19;93.80;;;42.07;;
19923;SDS011;10124;53.068;18.224;2022-12-20T16:39:48;87.60;;;41.07;;
19923;SDS011;10124;53.068;18.224;2022-12-20T16:42:17;85.70;;;38.10;;
19923;SDS011;10124;53.068;18.224;2022-12-20T16:44:50;74.47;;;34.13;;
19923;SDS011;10124;53.068;18.224;2022-12-20T16:47:20;79.53;;;37.77;;
19923;SDS011;10124;53.068;18.224;2022-12-20T16:49:49;82.00;;;37.23;;
19923;SDS011;10124;53.068;18.224;2022-12-20T16:52:20;70.40;;;35.60;;
19923;SDS011;10124;53.068;18.224;2022-12-20T16:54:50;83.47;;;39.27;;
19923;SDS011;10124;53.068;18.224;2022-12-20T16:57:18;71.27;;;33.57;;
19923;SDS011;10124;53.068;18.224;2022-12-20T16:59:48;81.27;;;36.90;;
19923;SDS011;10124;53.068;18.224;2022-12-20T17:02:21;70.90;;;35.53;;
19923;SDS011;10124;53.068;18.224;2022-12-20T17:05:01;72.47;;;32.80;;
19923;SDS011;10124;53.068;18.224;2022-12-20T17:07:29;71.07;;;33.83;;